sensor_id;sensor_type;location;lat;lon;timestamp;P1;durP1;ratioP1;P2;durP2;ratioP2
80297;SDS011;69599;52.622;9.230;2024-03-23T00:53:41;12.20;;;4.60;;
80297;SDS011;69599;52.622;9.230;2024-03-23T00:56:07;10.07;;;3.90;;
80297;SDS011;69599;52.622;9.230;2024-03-23T00:58:32;15.13;;;4.50;;
80297;SDS011;69599;52.622;9.230;2024-03-23T01:00:58;11.88;;;3.75;;
80297;SDS011;69599;52.622;9.230;2024-03-23T01:03:23;13.00;;;4.03;;
80297;SDS011;69599;52.622;9.230;2024-03-23T01:05:49;15.15;;;4.82;;
80297;SDS011;69599;52.622;9.230;2024-03-23T01:08:14;9.48;;;4.00;;
80297;SDS011;69599;52.622;9.230;2024-03-23T01:10:40;16.40;;;4.40;;
80297;SDS011;69599;52.622;9.230;2024-03-23T01:13:05;9.13;;;4.10;;
80297;SDS011;69599;52.622;9.230;2024-03-23T01:15:31;14.25;;;4.47;;
80297;SDS011;69599;52.622;9.230;2024-03-23T01:17:56;14.07;;;4.90;;
80297;SDS011;69599;52.622;9.230;2024-03-23T01:20:22;17.35;;;5.55;;
80297;SDS011;69599;52.622;9.230;2024-03-23T01:22:47;13.73;;;4.70;;
80297;SDS011;69599;52.622;9.230;2024-03-23T01:25:13;15.20;;;4.43;;
80297;SDS011;69599;52.622;9.230;2024-03-23T01:27:38;12.25;;;4.82;;
80297;SDS011;69599;52.622;9.230;2024-03-23T01:30:04;11.23;;;4.10;;
80297;SDS011;69599;52.622;9.230;2024-03-23T01:32:29;12.80;;;4.70;;
80297;SDS011;69599;52.622;9.230;2024-03-23T01:34:55;11.80;;;4.65;;
80297;SDS011;69599;52.622;9.230;2024-03-23T01:37:20;11.65;;;5.22;;
80297;SDS011;69599;52.622;9.230;2024-03-23T01:39:46;9.70;;;4.03;;
80297;SDS011;69599;52.622;9.230;2024-03-23T01:42:12;11.18;;;4.43;;
80297;SDS011;69599;52.622;9.230;2024-03-23T01:44:37;11.38;;;3.97;;
80297;SDS011;69599;52.622;9.230;2024-03-23T01:47:03;12.85;;;5.00;;
80297;SDS011;69599;52.622;9.230;2024-03-23T01:49:28;13.20;;;4.38;;
80297;SDS011;69599;52.622;9.230;2024-03-23T01:51:54;10.60;;;3.90;;
80297;SDS011;69599;52.622;9.230;2024-03-23T01:54:21;13.32;;;5.32;;
80297;SDS011;69599;52.622;9.230;2024-03-23T01:56:48;10.65;;;4.15;;
80297;SDS011;69599;52.622;9.230;2024-03-23T01:59:14;11.13;;;4.30;;
80297;SDS011;69599;52.622;9.230;2024-03-23T02:01:39;12.50;;;4.85;;
80297;SDS011;69599;52.622;9.230;2024-03-23T02:04:05;13.10;;;5.05;;
80297;SDS011;69599;52.622;9.230;2024-03-23T02:06:30;17.88;;;5.78;;
80297;SDS011;69599;52.622;9.230;2024-03-23T02:08:55;10.93;;;4.00;;
80297;SDS011;69599;52.622;9.230;2024-03-23T02:11:21;16.27;;;4.22;;
80297;SDS011;69599;52.622;9.230;2024-03-23T02:13:47;11.05;;;4.40;;
80297;SDS011;69599;52.622;9.230;2024-03-23T02:16:13;14.60;;;4.45;;
80297;SDS011;69599;52.622;9.230;2024-03-23T02:18:38;12.15;;;4.00;;
80297;SDS011;69599;52.622;9.230;2024-03-23T02:21:04;12.98;;;4.15;;
80297;SDS011;69599;52.622;9.230;2024-03-23T02:23:29;14.43;;;4.18;;
80297;SDS011;69599;52.622;9.230;2024-03-23T02:25:55;11.18;;;4.70;;
80297;SDS011;69599;52.622;9.230;2024-03-23T02:28:20;17.15;;;4.82;;
80297;SDS011;69599;52.622;9.230;2024-03-23T02:30:47;8.98;;;3.85;;
80297;SDS011;69599;52.622;9.230;2024-03-23T02:33:15;15.90;;;4.15;;
80297;SDS011;69599;52.622;9.230;2024-03-23T02:35:41;13.95;;;4.60;;
80297;SDS011;69599;52.622;9.230;2024-03-23T02:38:06;10.20;;;4.40;;
80297;SDS011;69599;52.622;9.230;2024-03-23T02:40:32;13.90;;;4.65;;
80297;SDS011;69599;52.622;9.230;2024-03-23T02:42:57;11.10;;;3.85;;
80297;SDS011;69599;52.622;9.230;2024-03-23T02:45:23;21.58;;;4.88;;
80297;SDS011;69599;52.622;9.230;2024-03-23T02:47:48;10.95;;;4.20;;
80297;SDS011;69599;52.622;9.230;2024-03-23T02:50:17;16.55;;;4.60;;
80297;SDS011;69599;52.622;9.230;2024-03-23T02:52:45;12.95;;;4.38;;
80297;SDS011;69599;52.622;9.230;2024-03-23T02:55:11;15.50;;;4.30;;
80297;SDS011;69599;52.622;9.230;2024-03-23T02:57:36;16.38;;;5.07;;
80297;SDS011;69599;52.622;9.230;2024-03-23T03:00:02;12.63;;;3.70;;
80297;SDS011;69599;52.622;9.230;2024-03-23T03:02:27;10.75;;;3.97;;
80297;SDS011;69599;52.622;9.230;2024-03-23T03:04:53;10.00;;;3.80;;
80297;SDS011;69599;52.622;9.230;2024-03-23T03:07:18;11.35;;;3.72;;
80297;SDS011;69599;52.622;9.230;2024-03-23T03:09:44;18.73;;;4.43;;
80297;SDS011;69599;52.622;9.230;2024-03-23T03:12:09;13.07;;;4.20;;
80297;SDS011;69599;52.622;9.230;2024-03-23T03:14:34;14.05;;;3.88;;
80297;SDS011;69599;52.622;9.230;2024-03-23T03:17:00;14.05;;;3.97;;
80297;SDS011;69599;52.622;9.230;2024-03-23T03:19:26;15.48;;;4.47;;
80297;SDS011;69599;52.622;9.230;2024-03-23T03:21:51;10.85;;;4.25;;
80297;SDS011;69599;52.622;9.230;2024-03-23T03:24:17;15.82;;;4.50;;
80297;SDS011;69599;52.622;9.230;2024-03-23T03:26:43;13.25;;;3.72;;
80297;SDS011;69599;52.622;9.230;2024-03-23T03:29:08;12.98;;;4.60;;
80297;SDS011;69599;52.622;9.230;2024-03-23T03:31:34;15.48;;;4.20;;
80297;SDS011;69599;52.622;9.230;2024-03-23T03:33:59;18.10;;;3.67;;
80297;SDS011;69599;52.622;9.230;2024-03-23T03:36:25;13.32;;;3.60;;
80297;SDS011;69599;52.622;9.230;2024-03-23T03:38:50;15.38;;;3.95;;
80297;SDS011;69599;52.622;9.230;2024-03-23T03:41:16;10.95;;;3.75;;
80297;SDS011;69599;52.622;9.230;2024-03-23T03:43:41;11.15;;;3.65;;
80297;SDS011;69599;52.622;9.230;2024-03-23T03:46:06;7.03;;;3.17;;
80297;SDS011;69599;52.622;9.230;2024-03-23T03:48:35;14.38;;;4.13;;
80297;SDS011;69599;52.622;9.230;2024-03-23T03:51:01;13.15;;;3.92;;
80297;SDS011;69599;52.622;9.230;2024-03-23T03:53:27;9.02;;;2.92;;
80297;SDS011;69599;52.622;9.230;2024-03-23T03:55:52;11.50;;;3.25;;
80297;SDS011;69599;52.622;9.230;2024-03-23T03:58:17;15.73;;;4.05;;
80297;SDS011;69599;52.622;9.230;2024-03-23T04:00:43;14.82;;;3.47;;
80297;SDS011;69599;52.622;9.230;2024-03-23T04:03:08;12.48;;;3.65;;
80297;SDS011;69599;52.622;9.230;2024-03-23T04:05:34;11.77;;;3.88;;
80297;SDS011;69599;52.622;9.230;2024-03-23T04:07:59;16.17;;;4.38;;
80297;SDS011;69599;52.622;9.230;2024-03-23T04:10:25;16.92;;;3.83;;
80297;SDS011;69599;52.622;9.230;2024-03-23T04:12:51;11.45;;;3.97;;
80297;SDS011;69599;52.622;9.230;2024-03-23T04:15:17;8.77;;;3.30;;
80297;SDS011;69599;52.622;9.230;2024-03-23T04:17:42;10.90;;;3.60;;
80297;SDS011;69599;52.622;9.230;2024-03-23T04:20:08;11.60;;;3.20;;
80297;SDS011;69599;52.622;9.230;2024-03-23T04:22:36;11.18;;;3.97;;
80297;SDS011;69599;52.622;9.230;2024-03-23T04:25:02;11.25;;;2.78;;
80297;SDS011;69599;52.622;9.230;2024-03-23T04:27:32;13.80;;;3.15;;
80297;SDS011;69599;52.622;9.230;2024-03-23T04:29:58;11.57;;;3.83;;
80297;SDS011;69599;52.622;9.230;2024-03-23T04:32:23;13.23;;;3.35;;
80297;SDS011;69599;52.622;9.230;2024-03-23T04:34:48;12.18;;;3.60;;
80297;SDS011;69599;52.622;9.230;2024-03-23T04:37:14;17.08;;;4.25;;
80297;SDS011;69599;52.622;9.230;2024-03-23T04:39:39;14.40;;;3.88;;
80297;SDS011;69599;52.622;9.230;2024-03-23T04:42:05;12.82;;;3.55;;
80297;SDS011;69599;52.622;9.230;2024-03-23T04:44:30;11.73;;;3.38;;
80297;SDS011;69599;52.622;9.230;2024-03-23T04:46:59;11.15;;;3.90;;
80297;SDS011;69599;52.622;9.230;2024-03-23T04:51:51;12.15;;;4.07;;
80297;SDS011;69599;52.622;9.230;2024-03-23T04:54:16;18.52;;;4.35;;
80297;SDS011;69599;52.622;9.230;2024-03-23T04:56:41;19.60;;;4.72;;
80297;SDS011;69599;52.622;9.230;2024-03-23T04:59:07;13.63;;;4.45;;
80297;SDS011;69599;52.622;9.230;2024-03-23T05:01:34;16.63;;;4.43;;
80297;SDS011;69599;52.622;9.230;2024-03-23T05:04:03;14.73;;;4.57;;
80297;SDS011;69599;52.622;9.230;2024-03-23T05:06:29;17.25;;;4.30;;
80297;SDS011;69599;52.622;9.230;2024-03-23T05:08:54;13.95;;;4.05;;
80297;SDS011;69599;52.622;9.230;2024-03-23T05:11:20;16.60;;;4.70;;
80297;SDS011;69599;52.622;9.230;2024-03-23T05:13:46;14.98;;;5.32;;
80297;SDS011;69599;52.622;9.230;2024-03-23T05:16:11;15.57;;;4.85;;
80297;SDS011;69599;52.622;9.230;2024-03-23T05:18:37;16.00;;;5.32;;
80297;SDS011;69599;52.622;9.230;2024-03-23T05:21:02;13.23;;;5.47;;
80297;SDS011;69599;52.622;9.230;2024-03-23T05:23:28;15.02;;;4.90;;
80297;SDS011;69599;52.622;9.230;2024-03-23T05:25:54;10.68;;;4.45;;
80297;SDS011;69599;52.622;9.230;2024-03-23T05:28:20;14.93;;;4.97;;
80297;SDS011;69599;52.622;9.230;2024-03-23T05:30:55;20.35;;;5.35;;
80297;SDS011;69599;52.622;9.230;2024-03-23T05:33:21;16.60;;;5.65;;
80297;SDS011;69599;52.622;9.230;2024-03-23T05:35:47;12.77;;;5.25;;
80297;SDS011;69599;52.622;9.230;2024-03-23T05:38:24;13.77;;;4.97;;
80297;SDS011;69599;52.622;9.230;2024-03-23T05:40:56;13.30;;;5.53;;
80297;SDS011;69599;52.622;9.230;2024-03-23T05:43:25;13.88;;;4.68;;
80297;SDS011;69599;52.622;9.230;2024-03-23T05:45:54;14.27;;;5.80;;
80297;SDS011;69599;52.622;9.230;2024-03-23T05:48:20;16.13;;;5.10;;
80297;SDS011;69599;52.622;9.230;2024-03-23T05:50:46;14.38;;;4.97;;
80297;SDS011;69599;52.622;9.230;2024-03-23T05:53:12;10.85;;;5.13;;
80297;SDS011;69599;52.622;9.230;2024-03-23T05:55:38;16.23;;;5.70;;
80297;SDS011;69599;52.622;9.230;2024-03-23T05:58:03;17.00;;;5.07;;
80297;SDS011;69599;52.622;9.230;2024-03-23T06:00:29;13.75;;;4.68;;
80297;SDS011;69599;52.622;9.230;2024-03-23T06:02:54;18.92;;;5.97;;
80297;SDS011;69599;52.622;9.230;2024-03-23T06:05:19;12.30;;;4.60;;
80297;SDS011;69599;52.622;9.230;2024-03-23T06:07:45;18.77;;;5.35;;
80297;SDS011;69599;52.622;9.230;2024-03-23T06:10:10;18.02;;;5.20;;
80297;SDS011;69599;52.622;9.230;2024-03-23T06:12:36;14.52;;;5.65;;
80297;SDS011;69599;52.622;9.230;2024-03-23T06:15:01;19.55;;;6.35;;
80297;SDS011;69599;52.622;9.230;2024-03-23T06:17:27;17.48;;;4.78;;
80297;SDS011;69599;52.622;9.230;2024-03-23T06:19:52;19.98;;;5.28;;
80297;SDS011;69599;52.622;9.230;2024-03-23T06:22:18;16.35;;;4.70;;
80297;SDS011;69599;52.622;9.230;2024-03-23T06:24:44;22.08;;;5.85;;
80297;SDS011;69599;52.622;9.230;2024-03-23T06:27:09;14.93;;;4.97;;
80297;SDS011;69599;52.622;9.230;2024-03-23T06:29:35;15.55;;;5.07;;
80297;SDS011;69599;52.622;9.230;2024-03-23T06:32:01;15.77;;;4.60;;
80297;SDS011;69599;52.622;9.230;2024-03-23T06:34:28;17.17;;;4.50;;
80297;SDS011;69599;52.622;9.230;2024-03-23T06:36:53;19.65;;;5.55;;
80297;SDS011;69599;52.622;9.230;2024-03-23T06:39:19;21.38;;;6.55;;
80297;SDS011;69599;52.622;9.230;2024-03-23T06:41:45;15.38;;;5.68;;
80297;SDS011;69599;52.622;9.230;2024-03-23T06:44:16;18.23;;;4.80;;
80297;SDS011;69599;52.622;9.230;2024-03-23T06:46:42;13.52;;;6.28;;
80297;SDS011;69599;52.622;9.230;2024-03-23T06:49:08;16.95;;;5.32;;
80297;SDS011;69599;52.622;9.230;2024-03-23T06:51:33;19.77;;;5.40;;
80297;SDS011;69599;52.622;9.230;2024-03-23T06:53:58;16.65;;;5.97;;
80297;SDS011;69599;52.622;9.230;2024-03-23T06:56:24;18.33;;;5.88;;
80297;SDS011;69599;52.622;9.230;2024-03-23T06:58:49;14.95;;;4.38;;
80297;SDS011;69599;52.622;9.230;2024-03-23T07:01:14;20.60;;;4.63;;
80297;SDS011;69599;52.622;9.230;2024-03-23T07:03:40;17.50;;;5.40;;
80297;SDS011;69599;52.622;9.230;2024-03-23T07:06:05;19.17;;;5.13;;
80297;SDS011;69599;52.622;9.230;2024-03-23T07:08:31;12.05;;;4.72;;
80297;SDS011;69599;52.622;9.230;2024-03-23T07:10:56;16.75;;;4.93;;
80297;SDS011;69599;52.622;9.230;2024-03-23T07:13:22;20.20;;;5.38;;
80297;SDS011;69599;52.622;9.230;2024-03-23T07:15:53;16.42;;;4.90;;
80297;SDS011;69599;52.622;9.230;2024-03-23T07:18:20;17.38;;;4.82;;
80297;SDS011;69599;52.622;9.230;2024-03-23T07:20:54;17.45;;;4.97;;
80297;SDS011;69599;52.622;9.230;2024-03-23T07:23:21;18.33;;;5.00;;
80297;SDS011;69599;52.622;9.230;2024-03-23T07:26:08;20.55;;;5.20;;
80297;SDS011;69599;52.622;9.230;2024-03-23T07:28:33;22.10;;;4.78;;
80297;SDS011;69599;52.622;9.230;2024-03-23T07:31:09;17.58;;;5.07;;
80297;SDS011;69599;52.622;9.230;2024-03-23T07:33:42;19.27;;;5.93;;
80297;SDS011;69599;52.622;9.230;2024-03-23T07:36:09;14.02;;;5.13;;
80297;SDS011;69599;52.622;9.230;2024-03-23T07:38:35;13.75;;;4.35;;
80297;SDS011;69599;52.622;9.230;2024-03-23T07:43:29;20.63;;;5.60;;
80297;SDS011;69599;52.622;9.230;2024-03-23T07:45:54;17.20;;;5.30;;
80297;SDS011;69599;52.622;9.230;2024-03-23T07:48:20;22.65;;;7.38;;
80297;SDS011;69599;52.622;9.230;2024-03-23T07:50:55;22.77;;;6.65;;
80297;SDS011;69599;52.622;9.230;2024-03-23T07:53:24;18.17;;;7.70;;
80297;SDS011;69599;52.622;9.230;2024-03-23T07:58:26;20.10;;;7.57;;
80297;SDS011;69599;52.622;9.230;2024-03-23T08:00:52;21.92;;;7.57;;
80297;SDS011;69599;52.622;9.230;2024-03-23T08:03:18;21.13;;;7.95;;
80297;SDS011;69599;52.622;9.230;2024-03-23T08:05:44;20.30;;;7.80;;
80297;SDS011;69599;52.622;9.230;2024-03-23T08:08:09;19.58;;;6.88;;
80297;SDS011;69599;52.622;9.230;2024-03-23T08:10:35;21.58;;;6.53;;
80297;SDS011;69599;52.622;9.230;2024-03-23T08:13:01;16.58;;;6.70;;
80297;SDS011;69599;52.622;9.230;2024-03-23T08:15:27;18.05;;;6.57;;
80297;SDS011;69599;52.622;9.230;2024-03-23T08:17:55;15.48;;;5.40;;
80297;SDS011;69599;52.622;9.230;2024-03-23T08:20:20;20.15;;;5.65;;
80297;SDS011;69599;52.622;9.230;2024-03-23T08:22:46;12.90;;;4.45;;
80297;SDS011;69599;52.622;9.230;2024-03-23T08:25:11;14.73;;;6.03;;
80297;SDS011;69599;52.622;9.230;2024-03-23T08:27:37;13.73;;;4.78;;
80297;SDS011;69599;52.622;9.230;2024-03-23T08:30:02;15.30;;;5.45;;
80297;SDS011;69599;52.622;9.230;2024-03-23T08:32:28;10.93;;;6.32;;
80297;SDS011;69599;52.622;9.230;2024-03-23T08:34:53;13.57;;;4.57;;
80297;SDS011;69599;52.622;9.230;2024-03-23T08:37:19;13.57;;;5.57;;
80297;SDS011;69599;52.622;9.230;2024-03-23T08:39:44;18.75;;;5.20;;
80297;SDS011;69599;52.622;9.230;2024-03-23T08:42:09;11.88;;;5.85;;
80297;SDS011;69599;52.622;9.230;2024-03-23T08:44:35;15.98;;;5.32;;
80297;SDS011;69599;52.622;9.230;2024-03-23T08:47:00;9.68;;;4.38;;
80297;SDS011;69599;52.622;9.230;2024-03-23T08:49:26;14.75;;;4.30;;
80297;SDS011;69599;52.622;9.230;2024-03-23T08:51:52;8.95;;;3.90;;
80297;SDS011;69599;52.622;9.230;2024-03-23T08:54:17;12.10;;;3.65;;
80297;SDS011;69599;52.622;9.230;2024-03-23T08:56:45;7.97;;;3.83;;
80297;SDS011;69599;52.622;9.230;2024-03-23T08:59:10;11.52;;;3.78;;
80297;SDS011;69599;52.622;9.230;2024-03-23T09:01:35;11.27;;;4.45;;
80297;SDS011;69599;52.622;9.230;2024-03-23T09:04:01;10.15;;;4.05;;
80297;SDS011;69599;52.622;9.230;2024-03-23T09:06:26;13.60;;;3.92;;
80297;SDS011;69599;52.622;9.230;2024-03-23T09:08:52;8.68;;;3.60;;
80297;SDS011;69599;52.622;9.230;2024-03-23T09:11:17;14.77;;;4.03;;
80297;SDS011;69599;52.622;9.230;2024-03-23T09:13:42;12.05;;;3.58;;
80297;SDS011;69599;52.622;9.230;2024-03-23T09:16:08;9.75;;;2.85;;
80297;SDS011;69599;52.622;9.230;2024-03-23T09:18:35;15.82;;;3.22;;
80297;SDS011;69599;52.622;9.230;2024-03-23T09:21:01;12.68;;;3.13;;
80297;SDS011;69599;52.622;9.230;2024-03-23T09:23:28;8.20;;;3.10;;
80297;SDS011;69599;52.622;9.230;2024-03-23T09:25:53;8.68;;;2.53;;
80297;SDS011;69599;52.622;9.230;2024-03-23T09:28:18;10.38;;;2.90;;
80297;SDS011;69599;52.622;9.230;2024-03-23T09:30:44;5.90;;;2.38;;
80297;SDS011;69599;52.622;9.230;2024-03-23T09:33:10;9.60;;;3.03;;
80297;SDS011;69599;52.622;9.230;2024-03-23T09:35:36;7.38;;;2.53;;
80297;SDS011;69599;52.622;9.230;2024-03-23T09:40:32;7.82;;;2.75;;
80297;SDS011;69599;52.622;9.230;2024-03-23T09:42:58;9.50;;;2.30;;
80297;SDS011;69599;52.622;9.230;2024-03-23T09:45:26;12.75;;;2.60;;
80297;SDS011;69599;52.622;9.230;2024-03-23T09:47:52;10.30;;;2.60;;
80297;SDS011;69599;52.622;9.230;2024-03-23T09:50:18;11.73;;;2.53;;
80297;SDS011;69599;52.622;9.230;2024-03-23T09:52:45;9.20;;;2.40;;
80297;SDS011;69599;52.622;9.230;2024-03-23T09:55:11;9.60;;;2.58;;
80297;SDS011;69599;52.622;9.230;2024-03-23T09:57:36;9.48;;;2.60;;
80297;SDS011;69599;52.622;9.230;2024-03-23T10:00:02;6.68;;;2.30;;
80297;SDS011;69599;52.622;9.230;2024-03-23T10:02:28;10.25;;;2.72;;
80297;SDS011;69599;52.622;9.230;2024-03-23T10:04:54;8.45;;;1.70;;
80297;SDS011;69599;52.622;9.230;2024-03-23T10:07:20;6.53;;;1.88;;
80297;SDS011;69599;52.622;9.230;2024-03-23T10:09:47;2.45;;;1.23;;
80297;SDS011;69599;52.622;9.230;2024-03-23T10:12:13;5.35;;;1.95;;
80297;SDS011;69599;52.622;9.230;2024-03-23T10:14:43;6.70;;;1.95;;
80297;SDS011;69599;52.622;9.230;2024-03-23T10:17:18;6.32;;;1.80;;
80297;SDS011;69599;52.622;9.230;2024-03-23T10:19:51;4.05;;;1.30;;
80297;SDS011;69599;52.622;9.230;2024-03-23T10:22:21;3.40;;;1.27;;
80297;SDS011;69599;52.622;9.230;2024-03-23T10:24:50;2.75;;;1.10;;
80297;SDS011;69599;52.622;9.230;2024-03-23T10:27:16;2.58;;;1.10;;
80297;SDS011;69599;52.622;9.230;2024-03-23T10:29:48;6.53;;;1.40;;
80297;SDS011;69599;52.622;9.230;2024-03-23T10:34:40;3.15;;;0.93;;
80297;SDS011;69599;52.622;9.230;2024-03-23T10:37:06;5.25;;;1.23;;
80297;SDS011;69599;52.622;9.230;2024-03-23T10:39:33;3.75;;;1.20;;
80297;SDS011;69599;52.622;9.230;2024-03-23T10:42:02;6.97;;;2.30;;
80297;SDS011;69599;52.622;9.230;2024-03-23T10:44:29;6.97;;;2.10;;
80297;SDS011;69599;52.622;9.230;2024-03-23T10:46:56;9.95;;;2.50;;
80297;SDS011;69599;52.622;9.230;2024-03-23T10:49:29;9.77;;;2.58;;
80297;SDS011;69599;52.622;9.230;2024-03-23T10:51:57;8.20;;;2.80;;
80297;SDS011;69599;52.622;9.230;2024-03-23T10:54:30;7.25;;;3.30;;
80297;SDS011;69599;52.622;9.230;2024-03-23T10:57:17;6.95;;;3.33;;
80297;SDS011;69599;52.622;9.230;2024-03-23T10:59:45;9.02;;;2.75;;
80297;SDS011;69599;52.622;9.230;2024-03-23T11:02:20;2.20;;;1.27;;
80297;SDS011;69599;52.622;9.230;2024-03-23T11:04:46;3.83;;;0.98;;
80297;SDS011;69599;52.622;9.230;2024-03-23T11:09:54;1.17;;;0.60;;
80297;SDS011;69599;52.622;9.230;2024-03-23T11:15:01;5.03;;;1.30;;
80297;SDS011;69599;52.622;9.230;2024-03-23T11:17:36;1.00;;;0.70;;
80297;SDS011;69599;52.622;9.230;2024-03-23T11:20:05;1.48;;;0.70;;
80297;SDS011;69599;52.622;9.230;2024-03-23T11:25:04;0.85;;;0.43;;
80297;SDS011;69599;52.622;9.230;2024-03-23T11:27:37;0.82;;;0.20;;
80297;SDS011;69599;52.622;9.230;2024-03-23T11:30:18;2.92;;;0.88;;
80297;SDS011;69599;52.622;9.230;2024-03-23T11:32:47;3.58;;;0.80;;
80297;SDS011;69599;52.622;9.230;2024-03-23T11:38:02;0.63;;;0.30;;
80297;SDS011;69599;52.622;9.230;2024-03-23T11:40:31;2.50;;;0.50;;
80297;SDS011;69599;52.622;9.230;2024-03-23T11:42:58;0.45;;;0.35;;
80297;SDS011;69599;52.622;9.230;2024-03-23T11:45:25;0.88;;;0.32;;
80297;SDS011;69599;52.622;9.230;2024-03-23T11:48:07;0.90;;;0.30;;
80297;SDS011;69599;52.622;9.230;2024-03-23T11:50:37;1.23;;;0.45;;
80297;SDS011;69599;52.622;9.230;2024-03-23T11:53:15;1.05;;;0.43;;
80297;SDS011;69599;52.622;9.230;2024-03-23T11:55:46;1.40;;;0.85;;
80297;SDS011;69599;52.622;9.230;2024-03-23T11:58:16;1.45;;;0.85;;
80297;SDS011;69599;52.622;9.230;2024-03-23T12:00:43;2.25;;;0.93;;
80297;SDS011;69599;52.622;9.230;2024-03-23T12:03:18;2.75;;;0.82;;
80297;SDS011;69599;52.622;9.230;2024-03-23T12:05:50;2.40;;;0.80;;
80297;SDS011;69599;52.622;9.230;2024-03-23T12:08:22;2.47;;;0.70;;
80297;SDS011;69599;52.622;9.230;2024-03-23T12:10:52;4.47;;;1.23;;
80297;SDS011;69599;52.622;9.230;2024-03-23T12:13:19;2.92;;;0.80;;
80297;SDS011;69599;52.622;9.230;2024-03-23T12:15:46;3.55;;;0.90;;
80297;SDS011;69599;52.622;9.230;2024-03-23T12:18:12;5.55;;;1.00;;
80297;SDS011;69599;52.622;9.230;2024-03-23T12:20:38;3.78;;;1.42;;
80297;SDS011;69599;52.622;9.230;2024-03-23T12:23:04;3.22;;;1.02;;
80297;SDS011;69599;52.622;9.230;2024-03-23T12:25:34;2.00;;;0.98;;
80297;SDS011;69599;52.622;9.230;2024-03-23T12:28:00;4.33;;;1.33;;
80297;SDS011;69599;52.622;9.230;2024-03-23T12:30:26;3.35;;;1.38;;
80297;SDS011;69599;52.622;9.230;2024-03-23T12:32:51;3.65;;;1.30;;
80297;SDS011;69599;52.622;9.230;2024-03-23T12:35:17;3.63;;;1.20;;
80297;SDS011;69599;52.622;9.230;2024-03-23T12:37:43;3.20;;;1.30;;
80297;SDS011;69599;52.622;9.230;2024-03-23T12:40:09;3.15;;;1.13;;
80297;SDS011;69599;52.622;9.230;2024-03-23T12:42:34;2.90;;;0.90;;
80297;SDS011;69599;52.622;9.230;2024-03-23T12:45:00;2.50;;;0.77;;
80297;SDS011;69599;52.622;9.230;2024-03-23T12:47:26;2.30;;;1.15;;
80297;SDS011;69599;52.622;9.230;2024-03-23T12:49:52;2.88;;;1.20;;
80297;SDS011;69599;52.622;9.230;2024-03-23T12:52:17;4.20;;;1.30;;
80297;SDS011;69599;52.622;9.230;2024-03-23T12:54:45;5.60;;;1.90;;
80297;SDS011;69599;52.622;9.230;2024-03-23T12:57:10;4.53;;;1.73;;
80297;SDS011;69599;52.622;9.230;2024-03-23T12:59:35;2.53;;;1.55;;
80297;SDS011;69599;52.622;9.230;2024-03-23T13:02:01;6.00;;;2.33;;
80297;SDS011;69599;52.622;9.230;2024-03-23T13:04:26;5.75;;;2.00;;
80297;SDS011;69599;52.622;9.230;2024-03-23T13:06:52;4.97;;;3.00;;
80297;SDS011;69599;52.622;9.230;2024-03-23T13:09:17;5.90;;;2.83;;
80297;SDS011;69599;52.622;9.230;2024-03-23T13:11:43;3.20;;;1.50;;
80297;SDS011;69599;52.622;9.230;2024-03-23T13:14:10;3.47;;;2.00;;
80297;SDS011;69599;52.622;9.230;2024-03-23T13:16:35;4.15;;;1.80;;
80297;SDS011;69599;52.622;9.230;2024-03-23T13:19:00;2.78;;;1.33;;
80297;SDS011;69599;52.622;9.230;2024-03-23T13:21:26;2.45;;;1.15;;
80297;SDS011;69599;52.622;9.230;2024-03-23T13:23:52;6.57;;;1.30;;
80297;SDS011;69599;52.622;9.230;2024-03-23T13:26:17;4.97;;;1.52;;
80297;SDS011;69599;52.622;9.230;2024-03-23T13:28:44;7.18;;;1.83;;
80297;SDS011;69599;52.622;9.230;2024-03-23T13:31:09;3.33;;;1.58;;
80297;SDS011;69599;52.622;9.230;2024-03-23T13:33:35;4.07;;;1.75;;
80297;SDS011;69599;52.622;9.230;2024-03-23T13:36:00;5.07;;;1.95;;
80297;SDS011;69599;52.622;9.230;2024-03-23T13:38:27;4.38;;;1.95;;
80297;SDS011;69599;52.622;9.230;2024-03-23T13:40:54;4.57;;;1.75;;
80297;SDS011;69599;52.622;9.230;2024-03-23T13:43:24;7.40;;;2.10;;
80297;SDS011;69599;52.622;9.230;2024-03-23T13:45:54;3.92;;;1.48;;
80297;SDS011;69599;52.622;9.230;2024-03-23T13:48:20;5.78;;;2.30;;
80297;SDS011;69599;52.622;9.230;2024-03-23T13:50:47;5.50;;;1.98;;
80297;SDS011;69599;52.622;9.230;2024-03-23T13:53:13;3.53;;;1.20;;
80297;SDS011;69599;52.622;9.230;2024-03-23T13:55:45;4.47;;;1.13;;
80297;SDS011;69599;52.622;9.230;2024-03-23T13:58:13;3.67;;;1.60;;
80297;SDS011;69599;52.622;9.230;2024-03-23T14:00:38;3.95;;;1.80;;
80297;SDS011;69599;52.622;9.230;2024-03-23T14:03:04;3.33;;;2.10;;
80297;SDS011;69599;52.622;9.230;2024-03-23T14:05:30;5.03;;;1.63;;
80297;SDS011;69599;52.622;9.230;2024-03-23T14:07:56;3.60;;;1.55;;
80297;SDS011;69599;52.622;9.230;2024-03-23T14:10:21;5.55;;;2.03;;
80297;SDS011;69599;52.622;9.230;2024-03-23T14:12:46;3.17;;;1.27;;
80297;SDS011;69599;52.622;9.230;2024-03-23T14:15:12;2.33;;;1.13;;
80297;SDS011;69599;52.622;9.230;2024-03-23T14:17:37;7.13;;;2.78;;
80297;SDS011;69599;52.622;9.230;2024-03-23T14:20:04;2.80;;;1.58;;
80297;SDS011;69599;52.622;9.230;2024-03-23T14:22:30;2.90;;;1.20;;
80297;SDS011;69599;52.622;9.230;2024-03-23T14:24:57;8.05;;;1.63;;
80297;SDS011;69599;52.622;9.230;2024-03-23T14:27:22;3.13;;;0.82;;
80297;SDS011;69599;52.622;9.230;2024-03-23T14:29:48;4.65;;;1.38;;
80297;SDS011;69599;52.622;9.230;2024-03-23T14:32:13;2.80;;;0.90;;
80297;SDS011;69599;52.622;9.230;2024-03-23T14:34:40;2.20;;;1.00;;
80297;SDS011;69599;52.622;9.230;2024-03-23T14:37:06;3.03;;;1.00;;
80297;SDS011;69599;52.622;9.230;2024-03-23T14:39:31;4.15;;;1.20;;
80297;SDS011;69599;52.622;9.230;2024-03-23T14:41:59;1.58;;;0.57;;
80297;SDS011;69599;52.622;9.230;2024-03-23T14:44:26;1.27;;;0.82;;
80297;SDS011;69599;52.622;9.230;2024-03-23T14:46:52;3.78;;;0.77;;
80297;SDS011;69599;52.622;9.230;2024-03-23T14:49:18;1.33;;;0.40;;
80297;SDS011;69599;52.622;9.230;2024-03-23T14:51:43;3.42;;;0.73;;
80297;SDS011;69599;52.622;9.230;2024-03-23T14:54:09;1.98;;;0.52;;
80297;SDS011;69599;52.622;9.230;2024-03-23T14:56:35;0.93;;;0.35;;
80297;SDS011;69599;52.622;9.230;2024-03-23T14:59:00;1.75;;;0.50;;
80297;SDS011;69599;52.622;9.230;2024-03-23T15:01:26;1.45;;;0.60;;
80297;SDS011;69599;52.622;9.230;2024-03-23T15:03:51;3.65;;;0.95;;
80297;SDS011;69599;52.622;9.230;2024-03-23T15:06:18;1.35;;;0.65;;
80297;SDS011;69599;52.622;9.230;2024-03-23T15:08:44;1.58;;;0.45;;
80297;SDS011;69599;52.622;9.230;2024-03-23T15:11:10;2.97;;;1.10;;
80297;SDS011;69599;52.622;9.230;2024-03-23T15:13:35;2.13;;;1.45;;
80297;SDS011;69599;52.622;9.230;2024-03-23T15:16:02;3.65;;;1.13;;
80297;SDS011;69599;52.622;9.230;2024-03-23T15:18:28;2.90;;;0.73;;
80297;SDS011;69599;52.622;9.230;2024-03-23T15:20:55;1.50;;;0.55;;
80297;SDS011;69599;52.622;9.230;2024-03-23T15:23:21;2.58;;;0.40;;
80297;SDS011;69599;52.622;9.230;2024-03-23T15:25:57;0.70;;;0.40;;
80297;SDS011;69599;52.622;9.230;2024-03-23T15:28:23;2.03;;;0.40;;
80297;SDS011;69599;52.622;9.230;2024-03-23T15:30:49;0.70;;;0.40;;
80297;SDS011;69599;52.622;9.230;2024-03-23T15:33:14;0.77;;;0.32;;
80297;SDS011;69599;52.622;9.230;2024-03-23T15:35:40;1.02;;;0.40;;
80297;SDS011;69599;52.622;9.230;2024-03-23T15:38:05;2.10;;;0.70;;
80297;SDS011;69599;52.622;9.230;2024-03-23T15:40:31;0.80;;;0.40;;
80297;SDS011;69599;52.622;9.230;2024-03-23T15:42:56;2.08;;;0.43;;
80297;SDS011;69599;52.622;9.230;2024-03-23T15:45:21;0.50;;;0.25;;
80297;SDS011;69599;52.622;9.230;2024-03-23T15:47:47;0.82;;;0.30;;
80297;SDS011;69599;52.622;9.230;2024-03-23T15:50:12;2.35;;;0.30;;
80297;SDS011;69599;52.622;9.230;2024-03-23T15:52:38;1.95;;;0.35;;